WetterOnline ( https://www.wetteronline.de )

Wetter aktuell Hoyerswerda

Aktuelles Wetter: Hoyerswerda (116m)

6-stündlich | Neueste Meldungen
Ortszeit Temperatur Wetter
Sa, 06.06. 2:00 11.8° C wolkig
Fr, 05.06. 20:00 15.2° C wolkenlos
Fr, 05.06. 14:00 16.6° C bewölkt
Fr, 05.06. 8:00 12.8° C bedeckt
Fr, 05.06. 2:00 15.1° C bewölkt
Do, 04.06. 20:00 18.3° C Regen
Do, 04.06. 14:00 23.8° C bedeckt
Do, 04.06. 8:00 17.6° C wolkig
Ortszeit Temperatur Wetter
Sa, 06.06. 4:00 10.3° C wolkenlos
Sa, 06.06. 3:50 10.3° C wolkenlos
Sa, 06.06. 3:40 10.8° C leicht bewölkt
Sa, 06.06. 3:30 11.3° C wolkig
Sa, 06.06. 3:20 11.3° C wolkig
Sa, 06.06. 3:10 11.4° C leicht bewölkt
Sa, 06.06. 3:00 11.7° C bedeckt
Sa, 06.06. 2:30 11.7° C wolkig
Sa, 06.06. 2:00 11.8° C wolkig
Sa, 06.06. 1:30 12.0° C wolkig
Sa, 06.06. 1:00 12.7° C Regen
Ortszeit Relative Feuchte Sichtweite
Sa, 06.06. 2:00 79% >70 km
Fr, 05.06. 20:00 66% >70 km
Fr, 05.06. 14:00 58% >70 km
Fr, 05.06. 8:00 88% 45 km
Fr, 05.06. 2:00 94% 45 km
Do, 04.06. 20:00 74% 65 km
Do, 04.06. 14:00 39% 65 km
Do, 04.06. 8:00 52% >70 km
Ortszeit Relative Feuchte Sichtweite
Sa, 06.06. 4:00 79% >70 km
Sa, 06.06. 3:50 79% -
Sa, 06.06. 3:40 77% -
Sa, 06.06. 3:30 74% >70 km
Sa, 06.06. 3:20 74% -
Sa, 06.06. 3:10 74% -
Sa, 06.06. 3:00 73% >70 km
Sa, 06.06. 2:30 74% >70 km
Sa, 06.06. 2:00 79% >70 km
Sa, 06.06. 1:30 79% >70 km
Sa, 06.06. 1:00 76% >70 km
Ortszeit Niederschlagsmenge Niederschlagsart
Sa, 06.06. 2:00 0.1 l/m2 in 6 Std. Regen
Fr, 05.06. 20:00 0.6 l/m2 in 12 Std. Regen
Fr, 05.06. 14:00 0.5 l/m2 in 6 Std. Regen
Fr, 05.06. 8:00 1 l/m2 in 12 Std. Regen
Fr, 05.06. 2:00 1 l/m2 in 6 Std. Regen
Do, 04.06. 20:00 0.1 l/m2 in 12 Std. Regen
Do, 04.06. 14:00 0.0 l/m2 in 6 Std. -
Do, 04.06. 8:00 0.0 l/m2 in 12 Std. -
Ortszeit Niederschlagsmenge Niederschlagsart
Sa, 06.06. 4:00 0.0 l/m2 in 1 Std. -
Sa, 06.06. 3:50 keine Meldung -
Sa, 06.06. 3:40 keine Meldung -
Sa, 06.06. 3:30 0.0 l/m2 in 1 Std. -
Sa, 06.06. 3:20 keine Meldung -
Sa, 06.06. 3:10 keine Meldung -
Sa, 06.06. 3:00 0.0 l/m2 in 1 Std. -
Sa, 06.06. 2:30 0.0 l/m2 in 1 Std. -
Sa, 06.06. 2:00 0.0 l/m2 in 1 Std. Regen
Sa, 06.06. 1:30 0.0 l/m2 in 1 Std. -
Sa, 06.06. 1:00 0.1 l/m2 in 1 Std. Regen
Ortszeit Stärke Spitze Richtung
km/h Bft. km/h Grad Sektor
Sa, 06.06. 2:00 14 3 36 230° SW
Fr, 05.06. 20:00 15 3 43 180° S
Fr, 05.06. 14:00 18 3 36 230° SW
Fr, 05.06. 8:00 15 3 31 270° W
Fr, 05.06. 2:00 11 2 18 230° SW
Do, 04.06. 20:00 9 2 37 140° SO
Do, 04.06. 14:00 14 3 29 150° SO
Do, 04.06. 8:00 11 2 18 140° SO
Ortszeit Stärke Spitze Richtung
km/h Bft. km/h Grad Sektor
Sa, 06.06. 4:00 13 3 30 210° SW
Sa, 06.06. 3:50 13 3 - 210° SW
Sa, 06.06. 3:40 13 3 - 220° SW
Sa, 06.06. 3:30 17 3 30 240° SW
Sa, 06.06. 3:20 17 3 - 240° SW
Sa, 06.06. 3:10 19 3 - 240° SW
Sa, 06.06. 3:00 20 4 35 240° SW
Sa, 06.06. 2:30 22 4 36 240° SW
Sa, 06.06. 2:00 14 3 29 230° SW
Sa, 06.06. 1:30 18 3 25 230° SW
Sa, 06.06. 1:00 13 3 35 210° SW
Ortszeit Untergrenze Bedeckung Gattung
total tief tief mittel hoch
Sa, 06.06. 2:00 2700 m 6/8 2/8 - - -
Fr, 05.06. 20:00 - 0/8 0/8 - - -
Fr, 05.06. 14:00 990 m 7/8 7/8 - - -
Fr, 05.06. 8:00 870 m 8/8 8/8 - - -
Fr, 05.06. 2:00 390 m 8/8 7/8 - - -
Do, 04.06. 20:00 1500 m 8/8 8/8 - - -
Do, 04.06. 14:00 3300 m 8/8 8/8 - - -
Do, 04.06. 8:00 6600 m 6/8 5/8 - - -
Ortszeit Bedeckungsgrad in Achtel und Wolkenuntergrenze
Sa, 06.06. 4:00 keine Wolken
Sa, 06.06. 3:50 keine Wolken
Sa, 06.06. 3:40 2(2100m)
Sa, 06.06. 3:30 4(2100m) 5(3000m)
Sa, 06.06. 3:20 4(2100m) 5(3000m)
Sa, 06.06. 3:10 1(2400m) 4(3000m)
Sa, 06.06. 3:00 8(3000m)
Sa, 06.06. 2:30 3(3000m) 5(3900m)
Sa, 06.06. 2:00 2(2700m) 6(3600m)
Sa, 06.06. 1:30 2(2400m) 6(3600m) 6(4200m)
Sa, 06.06. 1:00 3(1500m) 7(2100m) 8(2400m)
Ortszeit Luftdruck NN (hPa) Tendenz (hPa in 3 Std.)
Sa, 06.06. 2:00 999 + 2,5
Fr, 05.06. 20:00 996 - 0,4
Fr, 05.06. 14:00 997 + 0,4
Fr, 05.06. 8:00 995 + 1,7
Fr, 05.06. 2:00 993 - 0,3
Do, 04.06. 20:00 993 - 0,8
Do, 04.06. 14:00 995 - 1,1
Do, 04.06. 8:00 998 - 1,3
Ortszeit Luftdruck NN (hPa) Tendenz (hPa in 3 Std.)
Sa, 06.06. 4:00 1001 + 2,4
Sa, 06.06. 3:50 1001 keine Meldung
Sa, 06.06. 3:40 1001 keine Meldung
Sa, 06.06. 3:30 1001 + 2,3
Sa, 06.06. 3:20 1001 keine Meldung
Sa, 06.06. 3:10 1001 keine Meldung
Sa, 06.06. 3:00 1000 + 2,8
Sa, 06.06. 2:30 1000 + 3,0
Sa, 06.06. 2:00 999 + 2,5
Sa, 06.06. 1:30 999 + 1,9
Sa, 06.06. 1:00 998 + 1,4
Ortszeit Schneehöhe (cm)
Sa, 06.06. 2:00 -
Fr, 05.06. 20:00 -
Fr, 05.06. 14:00 -
Fr, 05.06. 8:00 -
Fr, 05.06. 2:00 -
Do, 04.06. 20:00 -
Do, 04.06. 14:00 -
Do, 04.06. 8:00 -
Ortszeit Schneehöhe (cm)
Sa, 06.06. 4:00 -
Sa, 06.06. 3:50 -
Sa, 06.06. 3:40 -
Sa, 06.06. 3:30 -
Sa, 06.06. 3:20 -
Sa, 06.06. 3:10 -
Sa, 06.06. 3:00 -
Sa, 06.06. 2:30 -
Sa, 06.06. 2:00 -
Sa, 06.06. 1:30 -
Sa, 06.06. 1:00 -
Link zu dieser Seite / Seite empfehlen

Das Wetter in ...